createdAt,value
2017-08-21T00:00:29.724Z,14.35
2017-08-21T00:01:29.421Z,14.35
2017-08-21T00:02:29.723Z,14.32
2017-08-21T00:03:29.734Z,14.3
2017-08-21T00:04:29.738Z,14.35
2017-08-21T00:05:29.736Z,14.28
2017-08-21T00:06:29.726Z,14.33
2017-08-21T00:07:29.123Z,14.3
2017-08-21T00:08:29.721Z,14.32
2017-08-21T00:09:29.730Z,14.36
2017-08-21T00:10:29.432Z,14.41
2017-08-21T00:11:29.718Z,14.4
2017-08-21T00:12:29.724Z,14.33
2017-08-21T00:13:29.720Z,14.36
2017-08-21T00:14:29.726Z,14.32
2017-08-21T00:15:29.421Z,14.4
2017-08-21T00:16:29.716Z,14.33
2017-08-21T00:17:29.722Z,14.35
2017-08-21T00:18:29.718Z,14.37
2017-08-21T00:19:29.464Z,14.4
2017-08-21T00:20:29.720Z,14.33
2017-08-21T00:21:29.727Z,14.3
2017-08-21T00:22:29.501Z,14.35
2017-08-21T00:23:29.712Z,14.26
2017-08-21T00:24:29.418Z,14.35
2017-08-21T00:25:29.715Z,14.29
2017-08-21T00:26:29.713Z,14.35
2017-08-21T00:27:29.418Z,14.2
2017-08-21T00:28:30.754Z,14.23
2017-08-21T00:29:29.724Z,14.29
2017-08-21T00:30:29.717Z,14.23
2017-08-21T00:31:29.408Z,14.23
2017-08-21T00:32:29.715Z,14.26
2017-08-21T00:33:29.411Z,14.25
2017-08-21T00:34:29.712Z,14.2
2017-08-21T00:35:29.709Z,14.17
2017-08-21T00:36:29.415Z,14.17
2017-08-21T00:37:29.111Z,14.15
2017-08-21T00:38:29.712Z,14.14
2017-08-21T00:39:29.709Z,14.2
2017-08-21T00:40:29.706Z,14.14
2017-08-21T00:41:29.703Z,14.05
2017-08-21T00:42:29.718Z,14.18
2017-08-21T00:43:33.761Z,14.18
2017-08-21T00:44:29.706Z,14.04
2017-08-21T00:45:29.411Z,14.05
2017-08-21T00:46:29.708Z,13.92
2017-08-21T00:47:29.699Z,14.07
2017-08-21T00:48:29.709Z,13.99
2017-08-21T00:49:29.407Z,14.08
2017-08-21T00:50:29.706Z,13.96
2017-08-21T00:51:29.721Z,13.99
2017-08-21T00:52:29.706Z,14.08
2017-08-21T00:53:29.709Z,13.97
2017-08-21T00:54:29.698Z,13.99
2017-08-21T00:55:29.703Z,14
2017-08-21T00:56:29.703Z,14.05
2017-08-21T00:57:29.397Z,14.03
2017-08-21T00:58:29.699Z,13.96
2017-08-21T00:59:29.705Z,14.07
2017-08-21T01:00:29.723Z,14.08
2017-08-21T01:01:29.698Z,14.05
2017-08-21T01:02:29.700Z,14.07
2017-08-21T01:03:29.695Z,14.03
2017-08-21T01:04:29.696Z,14.11
2017-08-21T01:05:29.697Z,14.17
2017-08-21T01:06:29.700Z,14.11
2017-08-21T01:07:29.707Z,14.17
2017-08-21T01:08:29.693Z,14.18
2017-08-21T01:09:29.400Z,14.17
2017-08-21T01:10:29.695Z,14.11
2017-08-21T01:11:29.391Z,14.11
2017-08-21T01:12:29.695Z,14.14
2017-08-21T01:13:29.692Z,14.05
2017-08-21T01:14:29.691Z,14.07
2017-08-21T01:15:29.692Z,14.07
2017-08-21T01:16:29.688Z,14.1
2017-08-21T01:17:29.387Z,14.11
2017-08-21T01:18:29.388Z,14.07
2017-08-21T01:19:29.690Z,14.11
2017-08-21T01:20:29.389Z,14.23
2017-08-21T01:21:29.688Z,14.15
2017-08-21T01:22:29.684Z,14.17
2017-08-21T01:23:29.686Z,14.18
2017-08-21T01:24:29.687Z,14.22
2017-08-21T01:25:29.686Z,14.18
2017-08-21T01:26:29.689Z,14.2
2017-08-21T01:27:29.386Z,14.3
2017-08-21T01:28:29.688Z,14.23
2017-08-21T01:29:32.790Z,14.32
2017-08-21T01:30:29.389Z,14.25
2017-08-21T01:31:29.394Z,14.33
2017-08-21T01:32:29.380Z,14.29
2017-08-21T01:33:29.688Z,14.35
2017-08-21T01:34:29.696Z,14.4
2017-08-21T01:35:29.688Z,14.41
2017-08-21T01:36:29.684Z,14.41
2017-08-21T01:37:29.383Z,14.41
2017-08-21T01:38:29.676Z,14.37
2017-08-21T01:39:29.676Z,14.43
2017-08-21T01:40:29.387Z,14.36
2017-08-21T01:41:29.378Z,14.36
2017-08-21T01:42:29.684Z,14.4
2017-08-21T01:43:29.374Z,14.41
2017-08-21T01:44:29.738Z,14.44
2017-08-21T01:45:29.679Z,14.55
2017-08-21T01:46:29.686Z,14.69
2017-08-21T01:47:29.675Z,14.62
2017-08-21T01:48:29.375Z,14.81
2017-08-21T01:49:29.676Z,14.85
2017-08-21T01:50:29.676Z,14.81
2017-08-21T01:51:29.679Z,15.02
2017-08-21T01:52:29.675Z,14.92
2017-08-21T01:53:29.671Z,14.97
2017-08-21T01:54:29.675Z,14.96
2017-08-21T01:55:29.367Z,14.94
2017-08-21T01:56:29.671Z,14.94
2017-08-21T01:57:29.669Z,14.92
2017-08-21T01:58:29.670Z,14.92
2017-08-21T01:59:33.736Z,14.96
2017-08-21T02:00:29.376Z,15
2017-08-21T02:01:29.669Z,15.07
2017-08-21T02:02:29.678Z,15.06
2017-08-21T02:03:29.666Z,15.03
2017-08-21T02:04:29.665Z,15.04
2017-08-21T02:05:29.370Z,15.09
2017-08-21T02:06:29.665Z,15.03
2017-08-21T02:07:29.669Z,15.04
2017-08-21T02:08:29.676Z,15.06
2017-08-21T02:09:29.674Z,15
2017-08-21T02:10:29.673Z,15.02
2017-08-21T02:11:29.370Z,15
2017-08-21T02:12:29.373Z,14.92
2017-08-21T02:13:29.075Z,15.03
2017-08-21T02:14:29.674Z,15.02
2017-08-21T02:15:29.666Z,15
2017-08-21T02:16:29.662Z,14.99
2017-08-21T02:17:29.669Z,14.94
2017-08-21T02:18:29.672Z,14.97
2017-08-21T02:19:29.670Z,14.96
2017-08-21T02:20:29.368Z,14.97
2017-08-21T02:21:29.664Z,14.96
2017-08-21T02:22:29.661Z,14.99
2017-08-21T02:23:29.662Z,15.02
2017-08-21T02:24:29.663Z,15.02
2017-08-21T02:25:29.375Z,15.07
2017-08-21T02:26:29.665Z,15.04
2017-08-21T02:27:29.678Z,15.11
2017-08-21T02:28:29.368Z,14.99
2017-08-21T02:29:29.375Z,15.09
2017-08-21T02:30:29.679Z,15.02
2017-08-21T02:31:29.376Z,15.15
2017-08-21T02:32:29.377Z,14.97
2017-08-21T02:33:29.681Z,14.97
2017-08-21T02:34:29.680Z,14.84
2017-08-21T02:35:29.382Z,14.82
2017-08-21T02:36:29.677Z,14.81
2017-08-21T02:37:29.675Z,14.73
2017-08-21T02:38:29.686Z,14.63
2017-08-21T02:39:29.378Z,14.59
2017-08-21T02:40:29.680Z,14.62
2017-08-21T02:41:29.362Z,14.51
2017-08-21T02:42:29.361Z,14.51
2017-08-21T02:43:29.682Z,14.44
2017-08-21T02:44:29.378Z,14.4
2017-08-21T02:45:29.666Z,14.3
2017-08-21T02:46:29.683Z,14.36
2017-08-21T02:47:29.669Z,14.35
2017-08-21T02:48:29.666Z,14.36
2017-08-21T02:49:29.375Z,14.33
2017-08-21T02:50:29.383Z,14.37
2017-08-21T02:51:29.356Z,14.4
2017-08-21T02:52:29.354Z,14.43
2017-08-21T02:53:29.655Z,14.41
2017-08-21T02:54:29.653Z,14.47
2017-08-21T02:55:29.350Z,14.47
2017-08-21T02:56:29.352Z,14.41
2017-08-21T02:57:29.647Z,14.51
2017-08-21T02:58:29.646Z,14.54
2017-08-21T02:59:29.349Z,14.45
2017-08-21T03:00:31.688Z,14.4
2017-08-21T03:01:29.637Z,14.4
2017-08-21T03:02:29.637Z,14.53
2017-08-21T03:03:29.637Z,14.62
2017-08-21T03:04:29.643Z,14.62
2017-08-21T03:05:29.644Z,14.54
2017-08-21T03:06:29.640Z,14.51
2017-08-21T03:07:29.334Z,14.58
2017-08-21T03:08:29.635Z,14.51
2017-08-21T03:09:29.642Z,14.5
2017-08-21T03:10:29.638Z,14.41
2017-08-21T03:11:29.651Z,14.35
2017-08-21T03:12:29.636Z,14.35
2017-08-21T03:13:29.331Z,14.17
2017-08-21T03:14:29.638Z,14.2
2017-08-21T03:15:29.636Z,14.17
2017-08-21T03:16:29.637Z,14.18
2017-08-21T03:17:29.340Z,14.15
2017-08-21T03:18:29.636Z,14.18
2017-08-21T03:19:29.635Z,14.2
2017-08-21T03:20:29.640Z,14.3
2017-08-21T03:21:29.628Z,14.25
2017-08-21T03:22:29.316Z,14.36
2017-08-21T03:23:29.631Z,14.35
2017-08-21T03:24:29.313Z,14.35
2017-08-21T03:25:29.668Z,14.35
2017-08-21T03:26:29.667Z,14.32
2017-08-21T03:27:29.615Z,14.26
2017-08-21T03:28:29.613Z,14.37
2017-08-21T03:29:29.633Z,14.23
2017-08-21T03:30:33.836Z,14.2
2017-08-21T03:31:29.610Z,14.18
2017-08-21T03:32:29.609Z,14.14
2017-08-21T03:33:29.310Z,14.14
2017-08-21T03:34:29.612Z,14.1
2017-08-21T03:35:29.609Z,14.1
2017-08-21T03:36:29.305Z,14.11
2017-08-21T03:37:29.340Z,14.22
2017-08-21T03:38:29.617Z,14.2
2017-08-21T03:39:29.598Z,14.15
2017-08-21T03:40:29.314Z,14.14
2017-08-21T03:41:29.598Z,14.18
2017-08-21T03:42:29.598Z,14.14
2017-08-21T03:43:29.614Z,14.11
2017-08-21T03:44:29.596Z,14.14
2017-08-21T03:45:29.598Z,14.07
2017-08-21T03:46:29.299Z,14.14
2017-08-21T03:47:29.597Z,14.15
2017-08-21T03:48:29.603Z,14.22
2017-08-21T03:49:29.595Z,14.18
2017-08-21T03:50:29.593Z,14.2
2017-08-21T03:51:29.596Z,14.17
2017-08-21T03:52:29.599Z,14.18
2017-08-21T03:53:29.594Z,14.17
2017-08-21T03:54:29.297Z,14.18
2017-08-21T03:55:29.591Z,14.23
2017-08-21T03:56:29.589Z,14.23
2017-08-21T03:57:29.594Z,14.26
2017-08-21T03:58:29.585Z,14.26
2017-08-21T03:59:29.587Z,14.35
2017-08-21T04:00:29.584Z,14.37
2017-08-21T04:01:33.086Z,14.44
2017-08-21T04:02:29.641Z,14.44
2017-08-21T04:03:29.640Z,14.54
2017-08-21T04:04:29.582Z,14.51
2017-08-21T04:05:29.585Z,14.54
2017-08-21T04:06:29.577Z,14.6
2017-08-21T04:07:29.580Z,14.55
2017-08-21T04:08:29.582Z,14.62
2017-08-21T04:09:29.312Z,14.59
2017-08-21T04:10:29.579Z,14.63
2017-08-21T04:11:29.585Z,14.59
2017-08-21T04:12:29.578Z,14.6
2017-08-21T04:13:29.276Z,14.62
2017-08-21T04:14:29.572Z,14.53
2017-08-21T04:15:29.572Z,14.47
2017-08-21T04:16:31.380Z,14.41
2017-08-21T04:17:29.586Z,14.36
2017-08-21T04:18:29.573Z,14.36
2017-08-21T04:19:29.593Z,14.35
2017-08-21T04:20:29.574Z,14.2
2017-08-21T04:21:29.568Z,14.26
2017-08-21T04:22:29.587Z,14.17
2017-08-21T04:23:29.265Z,14.14
2017-08-21T04:24:29.568Z,14.17
2017-08-21T04:25:29.570Z,14.2
2017-08-21T04:26:29.262Z,14.23
2017-08-21T04:27:29.561Z,14.1
2017-08-21T04:28:29.569Z,14.11
2017-08-21T04:29:29.572Z,14.08
2017-08-21T04:30:29.571Z,14.1
2017-08-21T04:31:29.574Z,14.17
2017-08-21T04:32:29.040Z,14.22
2017-08-21T04:33:29.257Z,14.15
2017-08-21T04:34:29.567Z,14.08
2017-08-21T04:35:29.558Z,14.12
2017-08-21T04:36:29.558Z,14.11
2017-08-21T04:37:29.551Z,14.17
2017-08-21T04:38:29.554Z,14.35
2017-08-21T04:39:29.561Z,14.35
2017-08-21T04:40:29.252Z,14.32
2017-08-21T04:41:29.650Z,14.28
2017-08-21T04:42:29.558Z,14.3
2017-08-21T04:43:29.553Z,14.35
2017-08-21T04:44:29.551Z,14.23
2017-08-21T04:45:29.549Z,14.23
2017-08-21T04:46:29.545Z,14.28
2017-08-21T04:47:29.560Z,14.23
2017-08-21T04:48:29.543Z,14.33
2017-08-21T04:49:29.549Z,14.32
2017-08-21T04:50:29.251Z,14.44
2017-08-21T04:51:29.243Z,14.44
2017-08-21T04:52:29.539Z,14.53
2017-08-21T04:53:29.540Z,14.58
2017-08-21T04:54:29.540Z,14.63
2017-08-21T04:55:29.233Z,14.6
2017-08-21T04:56:29.234Z,14.79
2017-08-21T04:57:29.541Z,14.66
2017-08-21T04:58:29.541Z,14.65
2017-08-21T04:59:29.533Z,14.62
2017-08-21T05:00:29.538Z,14.66
2017-08-21T05:01:29.534Z,14.63
2017-08-21T05:02:29.241Z,14.59
2017-08-21T05:03:29.232Z,14.6
2017-08-21T05:04:29.529Z,14.58
2017-08-21T05:05:29.533Z,14.48
2017-08-21T05:06:29.528Z,14.5
2017-08-21T05:07:29.530Z,14.54
2017-08-21T05:08:29.527Z,14.53
2017-08-21T05:09:29.523Z,14.5
2017-08-21T05:10:29.540Z,14.55
2017-08-21T05:11:29.537Z,14.6
2017-08-21T05:12:29.526Z,14.58
2017-08-21T05:13:29.218Z,14.63
2017-08-21T05:14:29.522Z,14.68
2017-08-21T05:15:29.519Z,14.68
2017-08-21T05:16:29.218Z,14.82
2017-08-21T05:17:29.214Z,14.82
2017-08-21T05:18:29.530Z,14.85
2017-08-21T05:19:29.520Z,14.78
2017-08-21T05:20:29.517Z,14.84
2017-08-21T05:21:29.214Z,14.92
2017-08-21T05:22:29.522Z,14.99
2017-08-21T05:23:29.521Z,14.96
2017-08-21T05:24:29.512Z,15.18
2017-08-21T05:25:29.513Z,15.21
2017-08-21T05:26:29.519Z,15.24
2017-08-21T05:27:29.214Z,15.29
2017-08-21T05:28:29.510Z,15.27
2017-08-21T05:29:29.521Z,15.17
2017-08-21T05:30:29.537Z,15.17
2017-08-21T05:31:29.209Z,15.07
2017-08-21T05:32:33.023Z,15.1
2017-08-21T05:33:29.211Z,15.11
2017-08-21T05:34:29.510Z,15.06
2017-08-21T05:35:29.219Z,15.03
2017-08-21T05:36:29.515Z,15.11
2017-08-21T05:37:29.513Z,15.14
2017-08-21T05:38:29.518Z,15.15
2017-08-21T05:39:29.506Z,15.18
2017-08-21T05:40:29.521Z,15.22
2017-08-21T05:41:29.208Z,15.29
2017-08-21T05:42:29.212Z,15.29
2017-08-21T05:43:29.509Z,15.47
2017-08-21T05:44:29.507Z,15.46
2017-08-21T05:45:29.208Z,15.52
2017-08-21T05:46:29.233Z,15.62
2017-08-21T05:47:29.505Z,15.68
2017-08-21T05:48:29.506Z,15.65
2017-08-21T05:49:29.509Z,15.67
2017-08-21T05:50:29.213Z,15.64
2017-08-21T05:51:29.507Z,15.65
2017-08-21T05:52:29.509Z,15.65
2017-08-21T05:53:29.506Z,15.62
2017-08-21T05:54:29.507Z,15.57
2017-08-21T05:55:29.512Z,15.55
2017-08-21T05:56:29.510Z,15.57
2017-08-21T05:57:29.509Z,15.52
2017-08-21T05:58:29.210Z,15.52
2017-08-21T05:59:29.530Z,15.44
2017-08-21T06:00:29.211Z,15.39
2017-08-21T06:01:29.511Z,15.36
2017-08-21T06:02:34.617Z,15.36
2017-08-21T06:03:29.514Z,15.37
2017-08-21T06:04:29.505Z,15.37
2017-08-21T06:05:29.508Z,15.36
2017-08-21T06:06:29.206Z,15.46
2017-08-21T06:07:29.512Z,15.43
2017-08-21T06:08:29.510Z,15.52
2017-08-21T06:09:29.511Z,15.61
2017-08-21T06:10:29.513Z,15.65
2017-08-21T06:11:29.208Z,15.67
2017-08-21T06:12:29.513Z,15.62
2017-08-21T06:13:29.514Z,15.73
2017-08-21T06:14:29.205Z,15.77
2017-08-21T06:15:29.513Z,15.8
2017-08-21T06:16:29.513Z,15.91
2017-08-21T06:17:29.509Z,15.95
2017-08-21T06:18:29.512Z,15.97
2017-08-21T06:19:29.510Z,15.98
2017-08-21T06:20:29.511Z,16.09
2017-08-21T06:21:29.516Z,16.09
2017-08-21T06:22:29.511Z,16.1
2017-08-21T06:23:29.510Z,16.13
2017-08-21T06:24:29.518Z,16.24
2017-08-21T06:25:29.512Z,16.31
2017-08-21T06:26:29.530Z,16.16
2017-08-21T06:27:29.513Z,16.09
2017-08-21T06:28:29.517Z,16.05
2017-08-21T06:29:29.511Z,16
2017-08-21T06:30:29.517Z,15.91
2017-08-21T06:31:29.518Z,15.83
2017-08-21T06:32:29.521Z,15.68
2017-08-21T06:33:29.214Z,15.83
2017-08-21T06:34:29.516Z,15.76
2017-08-21T06:35:29.517Z,15.76
2017-08-21T06:36:29.522Z,15.72
2017-08-21T06:37:29.518Z,15.76
2017-08-21T06:38:29.214Z,15.8
2017-08-21T06:39:29.215Z,15.91
2017-08-21T06:40:29.219Z,16.05
2017-08-21T06:41:29.520Z,16.17
2017-08-21T06:42:29.528Z,16.15
2017-08-21T06:43:29.516Z,16.31
2017-08-21T06:44:29.522Z,16.38
2017-08-21T06:45:29.525Z,16.53
2017-08-21T06:46:29.533Z,16.56
2017-08-21T06:47:29.232Z,16.61
2017-08-21T06:48:29.522Z,16.61
2017-08-21T06:49:29.522Z,16.56
2017-08-21T06:50:29.221Z,16.42
2017-08-21T06:51:29.526Z,16.41
2017-08-21T06:52:29.529Z,16.42
2017-08-21T06:53:30.349Z,16.43
2017-08-21T06:54:29.228Z,16.46
2017-08-21T06:55:29.542Z,16.54
2017-08-21T06:56:29.232Z,16.65
2017-08-21T06:57:29.531Z,16.64
2017-08-21T06:58:29.227Z,16.79
2017-08-21T06:59:29.541Z,16.83
2017-08-21T07:00:29.533Z,16.99
2017-08-21T07:01:29.537Z,17.11
2017-08-21T07:02:29.537Z,17.23
2017-08-21T07:03:33.538Z,17.33
2017-08-21T07:04:29.241Z,17.41
2017-08-21T07:05:29.239Z,17.49
2017-08-21T07:06:29.543Z,17.54
2017-08-21T07:07:29.547Z,17.54
2017-08-21T07:08:29.553Z,17.57
2017-08-21T07:09:29.544Z,17.57
2017-08-21T07:10:29.550Z,17.63
2017-08-21T07:11:29.548Z,17.64
2017-08-21T07:12:29.260Z,17.67
2017-08-21T07:13:29.559Z,17.67
2017-08-21T07:14:29.553Z,17.67
2017-08-21T07:15:29.567Z,17.76
2017-08-21T07:16:29.260Z,17.78
2017-08-21T07:17:29.588Z,17.78
2017-08-21T07:18:29.560Z,17.82
2017-08-21T07:19:29.571Z,17.94
2017-08-21T07:20:29.567Z,17.83
2017-08-21T07:21:29.269Z,17.87
2017-08-21T07:22:29.566Z,18.05
2017-08-21T07:23:29.571Z,18.1
2017-08-21T07:24:29.270Z,18.19
2017-08-21T07:25:29.573Z,18.29
2017-08-21T07:26:29.575Z,18.33
2017-08-21T07:27:29.604Z,18.28
2017-08-21T07:28:29.591Z,18.33
2017-08-21T07:29:29.584Z,18.25
2017-08-21T07:30:29.593Z,18.34
2017-08-21T07:31:29.588Z,18.4
2017-08-21T07:32:29.596Z,18.41
2017-08-21T07:33:29.286Z,18.65
2017-08-21T07:34:29.304Z,18.71
2017-08-21T07:35:29.608Z,18.78
2017-08-21T07:36:29.609Z,18.81
2017-08-21T07:37:29.302Z,18.83
2017-08-21T07:38:29.612Z,18.95
2017-08-21T07:39:29.616Z,19.02
2017-08-21T07:40:29.320Z,19.08
2017-08-21T07:41:29.011Z,19.21
2017-08-21T07:42:29.323Z,19.16
2017-08-21T07:43:29.328Z,19.27
2017-08-21T07:44:29.621Z,19.27
2017-08-21T07:45:29.636Z,19.27
2017-08-21T07:46:29.639Z,19.26
2017-08-21T07:47:29.330Z,19.26
2017-08-21T07:48:29.633Z,19.24
2017-08-21T07:49:30.134Z,19.34
2017-08-21T07:50:29.644Z,19.31
2017-08-21T07:51:29.647Z,19.29
2017-08-21T07:52:29.642Z,19.26
2017-08-21T07:53:29.650Z,19.12
2017-08-21T07:54:29.658Z,19.19
2017-08-21T07:55:29.662Z,19.26
2017-08-21T07:56:29.662Z,19.31
2017-08-21T07:57:29.667Z,19.44
2017-08-21T07:58:29.665Z,19.58
2017-08-21T07:59:29.663Z,19.69
2017-08-21T08:00:29.677Z,19.79
2017-08-21T08:01:29.682Z,19.81
2017-08-21T08:02:29.678Z,19.95
2017-08-21T08:03:29.378Z,19.91
2017-08-21T08:04:33.735Z,20.06
2017-08-21T08:05:29.394Z,20.29
2017-08-21T08:06:29.691Z,20.29
2017-08-21T08:07:29.693Z,20.34
2017-08-21T08:08:29.695Z,20.32
2017-08-21T08:09:29.395Z,20.31
2017-08-21T08:10:29.701Z,20.4
2017-08-21T08:11:29.710Z,20.58
2017-08-21T08:12:29.720Z,20.63
2017-08-21T08:13:29.725Z,20.75
2017-08-21T08:14:29.114Z,20.9
2017-08-21T08:15:29.419Z,20.95
2017-08-21T08:16:29.725Z,20.99
2017-08-21T08:17:29.729Z,21.02
2017-08-21T08:18:29.751Z,20.92
2017-08-21T08:19:29.740Z,20.75
2017-08-21T08:20:29.758Z,20.75
2017-08-21T08:21:29.445Z,20.87
2017-08-21T08:22:29.147Z,21
2017-08-21T08:23:29.463Z,21.09
2017-08-21T08:24:29.761Z,21.24
2017-08-21T08:25:29.465Z,21.36
2017-08-21T08:26:29.773Z,21.51
2017-08-21T08:27:29.777Z,21.57
2017-08-21T08:28:29.797Z,21.6
2017-08-21T08:29:29.779Z,21.6
2017-08-21T08:30:29.499Z,21.69
2017-08-21T08:31:29.790Z,21.69
2017-08-21T08:32:29.795Z,21.69
2017-08-21T08:33:29.808Z,21.66
2017-08-21T08:34:29.805Z,21.8
2017-08-21T08:35:29.804Z,22
2017-08-21T08:36:29.508Z,22.33
2017-08-21T08:37:29.826Z,22.53
2017-08-21T08:38:29.825Z,22.7
2017-08-21T08:39:29.825Z,22.87
2017-08-21T08:40:29.836Z,22.85
2017-08-21T08:41:29.840Z,22.76
2017-08-21T08:42:29.840Z,22.3
2017-08-21T08:43:29.548Z,22
2017-08-21T08:44:29.849Z,21.67
2017-08-21T08:45:29.864Z,21.5
2017-08-21T08:46:29.860Z,21.33
2017-08-21T08:47:29.569Z,21.36
2017-08-21T08:48:29.870Z,21.29
2017-08-21T08:49:29.578Z,21.35
2017-08-21T08:50:29.604Z,21.37
2017-08-21T08:51:29.281Z,21.32
2017-08-21T08:52:29.891Z,21.22
2017-08-21T08:53:29.596Z,21.32
2017-08-21T08:54:29.603Z,21.33
2017-08-21T08:55:29.904Z,21.29
2017-08-21T08:56:29.917Z,21.29
2017-08-21T08:57:29.915Z,21.4
2017-08-21T08:58:29.632Z,21.39
2017-08-21T08:59:29.923Z,21.42
2017-08-21T09:00:29.940Z,21.39
2017-08-21T09:01:29.941Z,21.43
2017-08-21T09:02:29.634Z,21.46
2017-08-21T09:03:29.673Z,21.52
2017-08-21T09:04:29.941Z,21.55
2017-08-21T09:05:29.966Z,21.54
2017-08-21T09:06:29.361Z,21.64
2017-08-21T09:07:29.959Z,21.64
2017-08-21T09:08:29.661Z,21.66
2017-08-21T09:09:29.965Z,21.69
2017-08-21T09:10:29.980Z,21.57
2017-08-21T09:11:29.399Z,21.6
2017-08-21T09:12:29.676Z,21.52
2017-08-21T09:13:29.682Z,21.43
2017-08-21T09:14:29.705Z,21.12
2017-08-21T09:15:29.692Z,21.05
2017-08-21T09:16:29.695Z,20.99
2017-08-21T09:17:30.008Z,20.8
2017-08-21T09:18:30.005Z,20.74
2017-08-21T09:19:29.711Z,20.81
2017-08-21T09:20:30.219Z,20.84
2017-08-21T09:21:29.716Z,20.81
2017-08-21T09:22:29.429Z,20.72
2017-08-21T09:23:30.030Z,20.5
2017-08-21T09:24:30.034Z,20.47
2017-08-21T09:25:30.035Z,20.34
2017-08-21T09:26:30.040Z,20.32
2017-08-21T09:27:30.042Z,20.29
2017-08-21T09:28:30.046Z,20.31
2017-08-21T09:29:29.747Z,20.36
2017-08-21T09:30:30.050Z,20.41
2017-08-21T09:31:30.060Z,20.58
2017-08-21T09:32:30.067Z,20.34
2017-08-21T09:33:30.069Z,20.37
2017-08-21T09:34:30.077Z,20.31
2017-08-21T09:35:31.329Z,20.32
2017-08-21T09:36:30.077Z,20.26
2017-08-21T09:37:29.779Z,20.26
2017-08-21T09:38:30.076Z,20.32
2017-08-21T09:39:30.085Z,20.44
2017-08-21T09:40:29.784Z,20.6
2017-08-21T09:41:29.806Z,20.52
2017-08-21T09:42:30.106Z,20.51
2017-08-21T09:43:29.794Z,20.52
2017-08-21T09:44:29.806Z,20.5
2017-08-21T09:45:30.479Z,20.55
2017-08-21T09:46:29.506Z,20.48
2017-08-21T09:47:29.811Z,20.37
2017-08-21T09:48:30.110Z,20.32
2017-08-21T09:49:30.131Z,20.32
2017-08-21T09:50:29.818Z,20.36
2017-08-21T09:51:30.127Z,20.29
2017-08-21T09:52:30.135Z,20.32
2017-08-21T09:53:30.128Z,20.34
2017-08-21T09:54:29.844Z,20.51
2017-08-21T09:55:30.141Z,20.65
2017-08-21T09:56:29.540Z,20.65
2017-08-21T09:57:30.150Z,20.77
2017-08-21T09:58:29.847Z,20.84
2017-08-21T09:59:29.845Z,20.92
2017-08-21T10:00:30.157Z,20.93
2017-08-21T10:01:29.851Z,20.93
2017-08-21T10:02:29.562Z,21.03
2017-08-21T10:03:29.862Z,21.11
2017-08-21T10:04:29.875Z,21.14
2017-08-21T10:05:30.171Z,21.29
2017-08-21T10:06:29.874Z,21.42
2017-08-21T10:07:30.173Z,21.46
2017-08-21T10:08:29.880Z,21.51
2017-08-21T10:09:30.191Z,21.58
2017-08-21T10:10:30.195Z,21.72
2017-08-21T10:11:30.192Z,21.8
2017-08-21T10:12:30.194Z,21.72
2017-08-21T10:13:30.195Z,21.69
2017-08-21T10:14:30.199Z,21.62
2017-08-21T10:15:29.916Z,21.66
2017-08-21T10:16:30.214Z,21.69
2017-08-21T10:17:30.219Z,21.69
2017-08-21T10:18:30.228Z,21.75
2017-08-21T10:19:29.927Z,21.66
2017-08-21T10:20:30.244Z,21.73
2017-08-21T10:21:29.929Z,21.82
2017-08-21T10:22:30.232Z,21.91
2017-08-21T10:23:30.250Z,21.93
2017-08-21T10:24:30.251Z,22
2017-08-21T10:25:29.940Z,22.02
2017-08-21T10:26:29.953Z,21.91
2017-08-21T10:27:29.954Z,21.7
2017-08-21T10:28:30.256Z,21.62
2017-08-21T10:29:30.257Z,21.48
2017-08-21T10:30:29.960Z,21.33
2017-08-21T10:31:30.266Z,21.14
2017-08-21T10:32:30.266Z,21.2
2017-08-21T10:33:29.968Z,21.2
2017-08-21T10:34:30.279Z,21.24
2017-08-21T10:35:29.982Z,21.4
2017-08-21T10:36:30.747Z,21.51
2017-08-21T10:37:30.291Z,21.67
2017-08-21T10:38:30.293Z,21.66
2017-08-21T10:39:30.294Z,21.83
2017-08-21T10:40:30.302Z,21.99
2017-08-21T10:41:30.008Z,21.93
2017-08-21T10:42:30.011Z,22
2017-08-21T10:43:30.313Z,22.07
2017-08-21T10:44:30.014Z,22.11
2017-08-21T10:45:30.317Z,22.14
2017-08-21T10:46:30.322Z,21.95
2017-08-21T10:47:30.325Z,22
2017-08-21T10:48:30.329Z,22
2017-08-21T10:49:30.332Z,22.11
2017-08-21T10:50:30.040Z,22.02
2017-08-21T10:51:30.350Z,22
2017-08-21T10:52:30.049Z,21.85
2017-08-21T10:53:30.050Z,21.85
2017-08-21T10:54:30.357Z,21.96
2017-08-21T10:55:30.060Z,22.07
2017-08-21T10:56:30.068Z,22.04
2017-08-21T10:57:30.070Z,22.07
2017-08-21T10:58:30.370Z,22
2017-08-21T10:59:30.076Z,21.91
2017-08-21T11:00:30.378Z,21.96
2017-08-21T11:01:30.079Z,21.79
2017-08-21T11:02:30.085Z,21.75
2017-08-21T11:03:30.402Z,21.73
2017-08-21T11:04:30.397Z,21.75
2017-08-21T11:05:30.093Z,21.92
2017-08-21T11:06:31.199Z,21.93
2017-08-21T11:07:30.414Z,22.14
2017-08-21T11:08:30.420Z,22.29
2017-08-21T11:09:30.430Z,22.47
2017-08-21T11:10:30.430Z,22.65
2017-08-21T11:11:30.437Z,22.68
2017-08-21T11:12:30.429Z,22.78
2017-08-21T11:13:30.450Z,22.91
2017-08-21T11:14:30.446Z,23.02
2017-08-21T11:15:29.849Z,23.15
2017-08-21T11:16:30.455Z,23.18
2017-08-21T11:17:30.464Z,23.21
2017-08-21T11:18:30.163Z,23.1
2017-08-21T11:19:30.478Z,23.1
2017-08-21T11:20:30.166Z,23.06
2017-08-21T11:21:31.266Z,23.05
2017-08-21T11:22:30.171Z,22.99
2017-08-21T11:23:30.479Z,22.93
2017-08-21T11:24:30.480Z,22.85
2017-08-21T11:25:30.179Z,22.88
2017-08-21T11:26:30.490Z,22.69
2017-08-21T11:27:29.885Z,22.57
2017-08-21T11:28:30.497Z,22.6
2017-08-21T11:29:30.516Z,22.51
2017-08-21T11:30:30.520Z,22.54
2017-08-21T11:31:30.513Z,22.51
2017-08-21T11:32:30.512Z,22.48
2017-08-21T11:33:30.531Z,22.39
2017-08-21T11:34:30.219Z,22.41
2017-08-21T11:35:30.222Z,22.33
2017-08-21T11:36:30.682Z,22.36
2017-08-21T11:37:30.537Z,22.45
2017-08-21T11:38:30.537Z,22.45
2017-08-21T11:39:30.545Z,22.63
2017-08-21T11:40:30.546Z,22.69
2017-08-21T11:41:30.557Z,22.72
2017-08-21T11:42:30.257Z,22.63
2017-08-21T11:43:30.562Z,22.43
2017-08-21T11:44:30.266Z,22.3
2017-08-21T11:45:30.278Z,22.22
2017-08-21T11:46:30.576Z,22.22
2017-08-21T11:47:30.292Z,22.14
2017-08-21T11:48:30.581Z,22.04
2017-08-21T11:49:30.610Z,22.13
2017-08-21T11:50:30.586Z,22.17
2017-08-21T11:51:30.389Z,22.25
2017-08-21T11:52:30.597Z,22.29
2017-08-21T11:53:30.612Z,22.29
2017-08-21T11:54:30.315Z,22.41
2017-08-21T11:55:30.609Z,22.59
2017-08-21T11:56:30.623Z,22.81
2017-08-21T11:57:30.017Z,22.81
2017-08-21T11:58:30.323Z,23.02
2017-08-21T11:59:30.627Z,23.17
2017-08-21T12:00:30.328Z,23.39
2017-08-21T12:01:30.331Z,23.56
2017-08-21T12:02:30.347Z,23.69
2017-08-21T12:03:30.664Z,23.65
2017-08-21T12:04:30.351Z,23.78
2017-08-21T12:05:30.345Z,23.73
2017-08-21T12:06:35.909Z,23.56
2017-08-21T12:07:30.672Z,23.41
2017-08-21T12:08:30.691Z,23.44
2017-08-21T12:09:30.667Z,23.36
2017-08-21T12:10:30.679Z,23.31
2017-08-21T12:11:30.676Z,23.23
2017-08-21T12:12:30.715Z,23.36
2017-08-21T12:13:30.693Z,23.43
2017-08-21T12:14:30.394Z,23.5
2017-08-21T12:15:30.704Z,23.65
2017-08-21T12:16:30.401Z,23.77
2017-08-21T12:17:30.709Z,23.68
2017-08-21T12:18:30.708Z,23.62
2017-08-21T12:19:30.713Z,23.62
2017-08-21T12:20:30.721Z,23.66
2017-08-21T12:21:30.722Z,23.77
2017-08-21T12:22:30.728Z,23.74
2017-08-21T12:23:30.732Z,23.91
2017-08-21T12:24:30.742Z,23.88
2017-08-21T12:25:30.738Z,23.8
2017-08-21T12:26:30.751Z,23.73
2017-08-21T12:27:30.451Z,23.62
2017-08-21T12:28:30.456Z,23.69
2017-08-21T12:29:30.761Z,23.73
2017-08-21T12:30:30.768Z,23.76
2017-08-21T12:31:30.777Z,23.95
2017-08-21T12:32:30.174Z,23.93
2017-08-21T12:33:30.477Z,24.11
2017-08-21T12:34:30.782Z,24.36
2017-08-21T12:35:30.790Z,24.43
2017-08-21T12:36:30.821Z,24.6
2017-08-21T12:37:32.102Z,24.63
2017-08-21T12:38:30.806Z,24.68
2017-08-21T12:39:30.809Z,24.84
2017-08-21T12:40:30.814Z,24.69
2017-08-21T12:41:30.821Z,24.61
2017-08-21T12:42:30.838Z,24.61
2017-08-21T12:43:30.534Z,24.61
2017-08-21T12:44:30.842Z,24.65
2017-08-21T12:45:30.853Z,24.85
2017-08-21T12:46:30.551Z,24.7
2017-08-21T12:47:30.849Z,24.51
2017-08-21T12:48:30.855Z,24.42
2017-08-21T12:49:30.864Z,24.33
2017-08-21T12:50:30.264Z,24.03
2017-08-21T12:51:30.886Z,23.76
2017-08-21T12:52:30.872Z,23.83
2017-08-21T12:53:30.591Z,23.63
2017-08-21T12:54:30.888Z,23.54
2017-08-21T12:55:30.634Z,23.47
2017-08-21T12:56:30.606Z,23.51